This is the latest recevied weather packets stored in our database for station/object KB2M. If no packets are shown the sender has not sent any weather packets the latest 1 day(s).
| Time | Temp. | Humidity | Pressure | Rain* | Wind** | Luminosity | Snow |
|---|---|---|---|---|---|---|---|
| 1777991822 | 23.89° C | 59% | 1018.9 hPa | 0 mm | 2.24 m/s, 50° | - | - |
| 1777991221 | 23.89° C | 58% | 1018.9 hPa | 0 mm | 1.79 m/s, 90° | - | - |
| 1777990592 | 23.89° C | 58% | 1018.9 hPa | 0 mm | 1.79 m/s, 72° | - | - |
| 1777989961 | 23.89° C | 57% | 1018.6 hPa | 0 mm | 1.79 m/s, 61° | - | - |
| 1777989362 | 23.89° C | 59% | 1018.9 hPa | 0 mm | 1.79 m/s, 52° | - | - |
| 1777988732 | 23.89° C | 60% | 1018.9 hPa | 0 mm | 1.34 m/s, 78° | - | - |
| 1777988102 | 23.89° C | 59% | 1018.9 hPa | 0 mm | 1.79 m/s, 108° | - | - |
| 1777987472 | 23.89° C | 60% | 1018.6 hPa | 0 mm | 1.79 m/s, 55° | - | - |
| 1777986842 | 23.33° C | 60% | 1018.6 hPa | 0 mm | 1.79 m/s, 69° | - | - |
| 1777986242 | 23.33° C | 61% | 1018.2 hPa | 0 mm | 1.79 m/s, 54° | - | - |
| 1777985642 | 23.33° C | 61% | 1018.2 hPa | 0 mm | 1.79 m/s, 86° | - | - |
| 1777985012 | 23.33° C | 61% | 1018.2 hPa | 0 mm | 2.24 m/s, 80° | - | - |
| 1777984412 | 23.89° C | 61% | 1018.2 hPa | 0 mm | 0.89 m/s, 44° | - | - |
| 1777983811 | 22.78° C | 69% | 1018.2 hPa | 0 mm | 0.89 m/s, 131° | - | - |
| 1777983211 | 21.11° C | 79% | 1017.9 hPa | 0 mm | 0.45 m/s, 196° | - | - |
| 1777982610 | 20° C | 81% | 1017.9 hPa | 0 mm | 0.89 m/s, 196° | - | - |
| 1777982009 | 20° C | 82% | 1017.9 hPa | 0 mm | 0.45 m/s, 179° | - | - |
| 1777981409 | 19.44° C | 86% | 1017.9 hPa | 0 mm | 0.45 m/s, 68° | - | - |
| 1777980808 | 17.78° C | 88% | 1017.9 hPa | 0 mm | 0.45 m/s, 187° | - | - |
| 1777980208 | 17.78° C | 88% | 1017.6 hPa | 0 mm | 0.89 m/s, 195° | - | - |
| 1777979607 | 17.78° C | 89% | 1017.6 hPa | 0 mm | 0.89 m/s, 164° | - | - |
| 1777979007 | 17.22° C | 89% | 1017.6 hPa | 0 mm | 0 m/s | - | - |
| 1777978406 | 17.22° C | 89% | 1017.6 hPa | 0 mm | 0.45 m/s, 51° | - | - |
| 1777977805 | 16.67° C | 88% | 1017.6 hPa | 0 mm | 0.89 m/s, 164° | - | - |
| 1777977175 | 17.22° C | 89% | 1017.6 hPa | 0 mm | 0.89 m/s, 194° | - | - |
* Rain latest hour (hover to see other rain measurements)
** Current wind speed in m/s (hover to see current wind gust speed)